Historique des mesures à Cassis (13260), France
Quotidien Résumé Mars 1, 2018 Unités:  US    Métrique   Métrique/US
« Précédent (Jour)
Suivant (Jour) »
Quotidien Hebdomadaire Mensuel Annuel Période au choix
  Maximum: Minimum: Moyenne:
Température: 32 °F 41.9 °F 45.9 °F
Point de rosée: 32 °F 31.6 °F 36.5 °F
Humidité: Humidity % 66 % 66 %
Vitesse du vent: WindSpeedKMH mph 2.6 mph 9.1 mph
Rafales: WindSpeedGustKMH mph - -
Vent:- - ESE
Pression: 0 in 29.2 in -
Précipitations: 0 in    
Historical Graphs
 
 
Mesures pour : Mars 1, 2018
Heure Temperature Point de rosée Pression Vent Vitesse du vent Rafales Humidité Pluie (par heure) Conditions
32 °F 32 °F 0 in Calm     Humidity % 0 in SoftwareType W/m2
00:12 42.3 °F 31.6 °F 29.5 in ESE 11.9 mph 14.0 mph 66 % 0 in open2300-1.11 W/m2
01:12 41.9 °F 31.6 °F 29.5 in SE 9.0 mph 14.8 mph 67 % 0 in open2300-1.11 W/m2
02:12 42.6 °F 32.4 °F 29.5 in SE 15.1 mph 15.1 mph 67 % 0 in open2300-1.11 W/m2
03:12 43 °F 32.7 °F 29.5 in ESE 16.3 mph 25.6 mph 67 % 0 in open2300-1.11 W/m2
04:12 43.5 °F 34 °F 29.5 in East 7.2 mph 13.4 mph 69 % 0 in open2300-1.11 W/m2
05:12 43.7 °F 34.2 °F 29.4 in ESE 15.1 mph 15.1 mph 69 % 0 in open2300-1.11 W/m2
06:12 44.2 °F 34.7 °F 29.4 in ESE 11.9 mph 15.1 mph 69 % 0 in open2300-1.11 W/m2
07:12 44.6 °F 35.4 °F 29.4 in East 6.1 mph 14.3 mph 70 % 0 in open2300-1.11 W/m2
09:12 45.3 °F 36.5 °F 29.4 in East 11.1 mph 11.1 mph 71 % 0 in open2300-1.11 W/m2
10:12 46 °F 36.9 °F 29.4 in NE 11.6 mph 12.6 mph 70 % 0 in open2300-1.11 W/m2
11:12 46.9 °F 37.2 °F 29.4 in ESE 2.6 mph 6.1 mph 69 % 0 in open2300-1.11 W/m2
12:11 48.4 °F 37.9 °F 29.4 in ESE 10.5 mph 10.5 mph 67 % 0 in open2300-1.11 W/m2
13:12 49.3 °F 38.8 °F 29.4 in NE 10.1 mph 10.1 mph 67 % 0 in open2300-1.11 W/m2
14:12 49.8 °F 38.8 °F 29.3 in ESE 12.6 mph 12.6 mph 66 % 0 in open2300-1.11 W/m2
16:12 49.8 °F 39.4 °F 29.3 in East 5.8 mph 6.8 mph 67 % 0 in open2300-1.11 W/m2
17:12 49.3 °F 39 °F 29.3 in NNE 2.9 mph 10.8 mph 68 % 0 in open2300-1.11 W/m2
18:12 48.9 °F 38.8 °F 29.3 in SSE 14.3 mph 14.3 mph 68 % 0 in open2300-1.11 W/m2
19:12 48.9 °F 39.2 °F 29.3 in ESE 10.1 mph 10.1 mph 69 % 0 in open2300-1.11 W/m2
21:12 48.9 °F 39.9 °F 29.3 in ESE 6.8 mph 11.1 mph 71 % 0 in open2300-1.11 W/m2
22:12 49.3 °F 40.3 °F 29.3 in ESE 5.8 mph 5.8 mph 71 % 0 in open2300-1.11 W/m2
23:12 49.8 °F 41.2 °F 29.2 in SE 2.6 mph 16.6 mph 72 % 0 in open2300-1.11 W/m2
Observations météo à CASSIS
WU-History script by Weather Underground - 1 mb